Time;durP1;ratioP1;P1;durP2;ratioP2;P2;SDS_P1;SDS_P2;PMS_P1;PMS_P2;Temp;Humidity;BMP_temperature;BMP_pressure;BME280_temperature;BME280_humidity;BME280_pressure;Samples;Min_cycle;Max_cycle;Signal;HPM_P1;HPM_P2
2023/09/16 00:03:10;;;;;;;4.90;4.46;;;;;;;19.47;68.74;98936.50;7236873;40;20245;31
2023/09/16 00:08:45;;;;;;;5.60;5.10;;;;;;;19.51;67.95;98942.34;7198420;40;20380;31
2023/09/16 00:14:21;;;;;;;6.10;5.30;;;;;;;19.36;68.46;98946.28;7183551;40;20347;31
2023/09/16 00:19:56;;;;;;;5.97;5.40;;;;;;;19.18;69.68;98953.62;7277315;39;20252;31
2023/09/16 00:25:28;;;;;;;6.94;5.22;;;;;;;19.12;70.50;98960.88;7247387;40;20255;31
2023/09/16 00:30:49;;;;;;;6.33;5.73;;;;;;;19.01;70.15;98955.31;7219637;40;20257;31
2023/09/16 00:36:25;;;;;;;5.80;5.07;;;;;;;18.87;71.95;98951.88;7236771;40;20239;31
2023/09/16 00:41:57;;;;;;;6.40;5.60;;;;;;;18.52;72.82;98951.56;7257359;40;20245;31
2023/09/16 00:47:17;;;;;;;7.22;5.45;;;;;;;18.38;72.77;98944.56;7279667;40;20256;31
2023/09/16 00:52:53;;;;;;;6.10;5.50;;;;;;;18.27;74.46;98937.09;7298033;40;20345;31
2023/09/16 00:58:29;;;;;;;8.17;6.07;;;;;;;18.28;74.22;98936.03;7264522;40;20315;31
2023/09/16 01:03:48;;;;;;;9.50;6.33;;;;;;;18.38;73.94;98945.41;7264815;40;20252;31
2023/09/16 01:09:22;;;;;;;8.50;6.60;;;;;;;18.44;73.67;98936.31;7308633;39;20307;31
2023/09/16 01:14:56;;;;;;;7.58;5.86;;;;;;;18.45;73.04;98942.59;7268502;40;20255;31
2023/09/16 01:20:31;;;;;;;6.57;5.87;;;;;;;18.57;72.16;98934.53;7294683;40;20248;31
2023/09/16 01:26:06;;;;;;;7.95;5.78;;;;;;;18.64;72.01;98938.91;7219878;40;20376;31
2023/09/16 01:31:38;;;;;;;5.70;5.10;;;;;;;18.69;71.67;98940.94;7212316;40;20372;31
2023/09/16 01:37:13;;;;;;;6.70;5.70;;;;;;;18.66;71.80;98947.69;7155314;40;20652;31
2023/09/16 01:47:53;;;;;;;6.37;5.50;;;;;;;18.55;71.65;98944.84;7200878;40;21290;31
2023/09/16 01:53:13;;;;;;;7.10;5.70;;;;;;;18.55;71.16;98961.25;7238548;40;20273;31
2023/09/16 02:03:55;;;;;;;8.40;5.50;;;;;;;18.11;72.10;98957.56;7318105;39;20371;31
2023/09/16 02:14:33;;;;;;;7.20;6.30;;;;;;;17.78;75.08;98949.59;7338395;39;20333;31
2023/09/16 02:25:11;;;;;;;9.57;6.87;;;;;;;17.75;75.84;98952.75;7313632;39;20371;31
2023/09/16 02:35:35;;;;;;;7.03;6.10;;;;;;;17.91;73.77;98965.88;7376361;39;21169;31
2023/09/16 02:41:15;;;;;;;7.97;6.33;;;;;;;17.69;74.61;98966.41;7359001;39;20935;31
2023/09/16 02:46:46;;;;;;;9.70;6.00;;;;;;;17.77;74.47;98972.44;7299575;39;20373;31
2023/09/16 02:52:21;;;;;;;5.90;5.30;;;;;;;17.91;73.74;98968.59;7301491;39;20371;31
2023/09/16 02:57:57;;;;;;;6.30;5.60;;;;;;;17.98;73.01;98968.56;7259264;40;20256;31
2023/09/16 03:03:17;;;;;;;7.90;6.03;;;;;;;17.93;72.86;98971.13;7244737;40;20320;31
2023/09/16 03:08:39;;;;;;;8.10;5.75;;;;;;;17.86;73.09;98971.16;7230158;40;20316;31
2023/09/16 03:14:10;;;;;;;7.20;6.10;;;;;;;17.83;72.68;98957.97;7245704;40;20244;31
2023/09/16 03:19:31;;;;;;;7.55;6.47;;;;;;;17.68;73.15;98957.44;7261178;40;20249;31
2023/09/16 03:25:06;;;;;;;6.73;5.77;;;;;;;17.63;72.99;98954.53;7270102;40;20342;31
2023/09/16 03:30:42;;;;;;;11.60;5.90;;;;;;;17.62;72.87;98957.44;7250754;40;20249;31
2023/09/16 03:35:59;;;;;;;7.96;6.22;;;;;;;17.64;71.96;98956.16;7227764;40;20788;31
2023/09/16 03:41:35;;;;;;;6.90;6.00;;;;;;;17.60;71.84;98949.47;7245016;40;20240;31
2023/09/16 03:47:10;;;;;;;9.57;6.47;;;;;;;17.43;73.63;98940.09;7213419;40;20279;31
2023/09/16 03:57:49;;;;;;;8.60;6.33;;;;;;;17.31;72.91;98933.66;7308483;39;21786;31
2023/09/16 04:03:25;;;;;;;7.65;5.82;;;;;;;17.24;72.18;98927.44;7285377;40;20307;31
2023/09/16 04:08:56;;;;;;;6.00;5.40;;;;;;;17.29;73.27;98933.87;7308111;39;20372;31
2023/09/16 04:14:31;;;;;;;6.70;5.60;;;;;;;17.23;73.03;98921.13;7278847;40;20258;31
2023/09/16 04:20:09;;;;;;;7.70;5.80;;;;;;;16.92;73.87;98923.75;7238173;40;20257;31
2023/09/16 04:25:42;;;;;;;7.90;6.50;;;;;;;17.05;73.27;98924.56;7224062;40;20249;31
2023/09/16 04:31:17;;;;;;;7.13;5.90;;;;;;;17.14;72.87;98914.25;7227970;40;20349;31
2023/09/16 04:36:54;;;;;;;7.50;5.80;;;;;;;16.92;73.37;98908.25;7237558;40;20266;31
2023/09/16 04:42:15;;;;;;;6.95;5.85;;;;;;;16.68;74.31;98915.22;7209136;40;20242;31
2023/09/16 04:47:48;;;;;;;9.07;6.40;;;;;;;16.46;77.05;98911.03;7210709;40;20351;31
2023/09/16 04:58:27;;;;;;;9.30;6.60;;;;;;;16.46;76.37;98910.19;7230858;39;20267;31
2023/09/16 05:04:00;;;;;;;7.87;6.77;;;;;;;16.49;76.25;98907.91;7265533;40;20344;31
2023/09/16 05:09:36;;;;;;;7.60;6.50;;;;;;;16.47;76.16;98906.44;7246884;40;20259;31
2023/09/16 05:15:13;;;;;;;7.40;6.00;;;;;;;16.39;76.11;98901.22;7198072;40;20694;31
2023/09/16 05:20:49;;;;;;;10.07;6.77;;;;;;;16.38;76.87;98908.53;7192735;40;20320;31
2023/09/16 05:26:12;;;;;;;10.90;7.90;;;;;;;16.41;78.75;98910.84;7219877;40;20253;31
2023/09/16 05:31:47;;;;;;;9.67;6.90;;;;;;;16.52;78.41;98906.66;7251103;40;20267;31
2023/09/16 05:37:07;;;;;;;8.27;7.27;;;;;;;16.71;76.75;98905.81;7209963;40;20950;31
2023/09/16 05:42:42;;;;;;;10.00;7.60;;;;;;;16.68;77.77;98919.81;7275253;40;20857;31
2023/09/16 05:48:19;;;;;;;9.40;7.13;;;;;;;16.75;78.16;98925.28;7261100;40;20243;31
2023/09/16 05:53:39;;;;;;;7.62;6.82;;;;;;;16.95;77.53;98918.72;7239428;40;20881;31
2023/09/16 05:59:15;;;;;;;9.07;7.27;;;;;;;16.89;78.20;98914.16;7266532;40;20266;31
2023/09/16 06:04:50;;;;;;;10.45;8.20;;;;;;;16.86;79.16;98927.31;7035634;40;20239;31
2023/09/16 06:10:25;;;;;;;9.80;8.23;;;;;;;16.82;80.67;98924.19;7213375;40;20416;31
2023/09/16 06:16:01;;;;;;;9.30;7.90;;;;;;;16.95;80.72;98928.75;7179909;40;20258;31
2023/09/16 06:21:37;;;;;;;10.60;8.70;;;;;;;17.07;80.54;98925.16;7207651;40;20248;31
2023/09/16 06:26:58;;;;;;;9.90;8.10;;;;;;;17.24;79.60;98932.88;7207855;40;20253;31
2023/09/16 06:32:19;;;;;;;10.70;8.20;;;;;;;17.33;80.01;98937.03;7259673;40;20314;31
2023/09/16 06:37:54;;;;;;;8.50;7.45;;;;;;;17.54;79.57;98944.88;7270000;39;20256;31
2023/09/16 06:43:30;;;;;;;8.95;8.05;;;;;;;17.77;79.83;98938.94;7219450;40;20425;31
2023/09/16 06:48:50;;;;;;;9.40;8.50;;;;;;;17.95;78.37;98945.28;7230815;40;20512;31
2023/09/16 06:54:26;;;;;;;9.53;7.97;;;;;;;18.12;78.67;98945.59;7256124;40;20345;31
2023/09/16 07:00:01;;;;;;;10.27;7.63;;;;;;;18.33;78.27;98956.16;7131590;40;20254;31
2023/09/16 07:05:40;;;;;;;8.60;7.70;;;;;;;18.45;77.97;98953.50;7168051;40;20385;31
2023/09/16 07:11:17;;;;;;;8.43;7.33;;;;;;;18.54;79.03;98949.47;7180723;40;20246;31
2023/09/16 07:16:51;;;;;;;9.33;7.40;;;;;;;18.65;77.20;98940.53;7235858;40;20245;31
2023/09/16 07:22:27;;;;;;;12.60;7.70;;;;;;;18.78;77.79;98954.06;7266273;40;20350;31
2023/09/16 07:28:04;;;;;;;10.50;7.40;;;;;;;18.97;77.46;98963.13;7270161;40;20308;31
2023/09/16 07:33:39;;;;;;;10.43;7.57;;;;;;;19.19;76.99;98963.50;7238137;40;20296;31
2023/09/16 07:39:14;;;;;;;9.73;7.10;;;;;;;19.26;77.20;98950.63;7226145;40;20288;31
2023/09/16 07:44:52;;;;;;;8.90;7.55;;;;;;;19.46;77.47;98956.72;7221055;40;20281;31
2023/09/16 07:55:17;;;;;;;9.24;7.24;;;;;;;19.80;76.05;98969.72;7294783;39;20290;31
2023/09/16 08:00:53;;;;;;;8.05;7.25;;;;;;;20.00;76.86;98974.06;7335496;39;20243;31
2023/09/16 08:06:28;;;;;;;11.30;7.37;;;;;;;20.11;76.74;98971.37;7262185;40;20248;31
2023/09/16 08:11:48;;;;;;;9.20;7.40;;;;;;;20.32;74.65;98975.50;7259080;40;20793;31
2023/09/16 08:17:24;;;;;;;9.10;7.10;;;;;;;20.51;74.29;98977.09;7245377;40;20710;31
2023/09/16 08:22:58;;;;;;;7.97;7.17;;;;;;;20.66;74.85;98977.47;7201962;40;21194;31
2023/09/16 08:28:18;;;;;;;7.85;6.80;;;;;;;20.83;75.14;98987.72;7237106;40;20861;31
2023/09/16 08:33:54;;;;;;;8.63;7.60;;;;;;;21.03;73.13;98982.69;7243675;40;20907;31
2023/09/16 08:39:18;;;;;;;10.00;7.10;;;;;;;21.19;73.80;98982.03;7266659;40;20280;31
2023/09/16 08:44:53;;;;;;;8.78;7.10;;;;;;;21.37;72.67;98975.56;7268534;40;20237;31
2023/09/16 08:50:28;;;;;;;9.80;7.43;;;;;;;21.52;72.61;98984.09;7208667;40;20250;31
2023/09/16 08:56:00;;;;;;;8.13;7.32;;;;;;;21.57;72.15;99003.41;7243684;40;20252;31
2023/09/16 09:01:21;;;;;;;9.05;6.90;;;;;;;21.75;71.59;99000.50;7233849;40;20254;31
2023/09/16 09:06:57;;;;;;;9.52;7.62;;;;;;;21.84;71.42;99012.75;7274098;39;20261;31
2023/09/16 09:12:33;;;;;;;8.97;7.10;;;;;;;22.01;70.75;99005.44;7249574;40;20249;31
2023/09/16 09:18:10;;;;;;;10.80;7.70;;;;;;;22.26;70.82;99004.22;7242448;40;20365;31
2023/09/16 09:23:46;;;;;;;7.50;6.73;;;;;;;22.48;69.77;99010.69;7236784;40;20360;31
2023/09/16 09:29:22;;;;;;;7.60;6.90;;;;;;;22.61;69.37;99007.63;7236615;40;20323;31
2023/09/16 09:34:57;;;;;;;7.08;6.08;;;;;;;22.78;69.01;98996.66;7228211;40;20374;31
2023/09/16 09:40:34;;;;;;;7.05;6.35;;;;;;;23.03;68.82;98993.47;7220223;40;20241;31
2023/09/16 09:46:10;;;;;;;6.97;6.27;;;;;;;23.21;67.37;98980.25;7179248;40;20348;31
2023/09/16 09:51:48;;;;;;;6.47;5.80;;;;;;;23.48;67.20;98976.78;7194402;40;20370;31
2023/09/16 09:57:22;;;;;;;7.22;5.57;;;;;;;23.60;66.72;98985.78;7195214;40;20242;31
2023/09/16 10:03:00;;;;;;;6.20;5.60;;;;;;;23.78;67.86;98989.00;7258989;40;20245;31
2023/09/16 10:08:19;;;;;;;9.05;6.00;;;;;;;24.03;66.47;98993.16;7250637;40;20279;31
2023/09/16 10:18:55;;;;;;;6.20;5.60;;;;;;;24.42;63.14;98985.59;7306278;39;20585;31
2023/09/16 10:24:30;;;;;;;6.43;5.77;;;;;;;24.68;63.33;98988.31;7263258;40;20474;31
2023/09/16 10:30:05;;;;;;;6.38;5.64;;;;;;;24.96;62.40;98978.09;7280446;40;20392;31
2023/09/16 10:35:41;;;;;;;7.85;5.50;;;;;;;25.16;61.04;98982.91;7259456;40;20343;31
2023/09/16 10:41:15;;;;;;;6.60;6.00;;;;;;;25.35;60.90;98984.12;7270718;39;21108;31
2023/09/16 10:46:51;;;;;;;8.50;5.70;;;;;;;25.63;60.75;98978.22;7186219;40;20251;31
2023/09/16 10:52:27;;;;;;;6.78;5.57;;;;;;;25.81;60.07;98974.13;7219340;40;20261;31
2023/09/16 10:58:04;;;;;;;5.80;5.30;;;;;;;25.89;60.27;98974.44;7187457;40;20708;31
2023/09/16 11:03:40;;;;;;;7.78;5.75;;;;;;;25.64;59.83;98979.87;7189816;40;20341;31
2023/09/16 11:09:16;;;;;;;6.83;5.70;;;;;;;26.01;58.83;98974.22;7150099;40;20964;31
2023/09/16 11:19:56;;;;;;;8.32;5.53;;;;;;;26.53;58.08;98970.44;7176453;40;20287;31
2023/09/16 11:30:39;;;;;;;5.80;5.00;;;;;;;26.45;56.75;98960.78;7305925;39;20336;31
2023/09/16 11:41:26;;;;;;;5.40;4.80;;;;;;;26.33;57.85;98954.66;7326640;39;20260;31
2023/09/16 11:47:03;;;;;;;7.15;4.95;;;;;;;26.30;56.94;98950.53;7276497;39;20253;31
2023/09/16 11:52:38;;;;;;;5.90;4.80;;;;;;;26.17;57.68;98941.91;7269181;40;20245;31
2023/09/16 11:58:13;;;;;;;5.90;5.40;;;;;;;26.20;57.81;98931.16;7298444;40;20413;31
2023/09/16 12:03:45;;;;;;;5.40;4.90;;;;;;;26.40;56.56;98922.91;7317760;39;21108;31
2023/09/16 12:09:21;;;;;;;6.90;5.40;;;;;;;26.48;56.02;98916.00;7286318;40;20241;31
2023/09/16 12:14:55;;;;;;;4.70;4.30;;;;;;;26.41;56.54;98918.22;7187969;40;20247;31
2023/09/16 12:20:32;;;;;;;4.87;4.40;;;;;;;26.41;57.03;98915.44;7175791;40;20303;31
2023/09/16 12:25:52;;;;;;;5.50;4.90;;;;;;;26.46;57.05;98904.34;7189489;40;20250;31
2023/09/16 12:31:25;;;;;;;5.90;5.30;;;;;;;26.46;56.90;98904.34;7021417;40;20305;31
2023/09/16 12:37:04;;;;;;;5.50;4.95;;;;;;;26.38;56.10;98904.91;7187864;40;20340;31
2023/09/16 12:42:39;;;;;;;6.95;4.60;;;;;;;26.38;56.99;98899.38;7216086;40;20289;31
2023/09/16 12:53:16;;;;;;;5.75;5.12;;;;;;;26.40;57.61;98877.84;7305897;39;21690;31
2023/09/16 12:58:55;;;;;;;5.50;5.00;;;;;;;26.59;56.88;98883.66;7270206;40;20382;31
2023/09/16 13:04:27;;;;;;;5.47;4.90;;;;;;;26.77;56.37;98872.81;7245180;40;20386;31
2023/09/16 13:10:03;;;;;;;6.27;4.57;;;;;;;26.87;56.16;98881.13;7230191;40;20313;31
2023/09/16 13:15:40;;;;;;;6.30;4.50;;;;;;;27.03;56.04;98881.91;7178509;40;20234;31
2023/09/16 13:21:15;;;;;;;5.90;4.53;;;;;;;27.20;55.87;98881.59;7198623;40;21050;31
2023/09/16 13:26:52;;;;;;;5.00;4.50;;;;;;;27.44;55.17;98874.28;7156600;40;20377;31
2023/09/16 13:32:28;;;;;;;4.53;4.07;;;;;;;27.58;54.40;98882.81;7144232;40;20267;31
2023/09/16 13:38:03;;;;;;;6.65;4.20;;;;;;;27.61;54.58;98883.06;7190742;40;20245;31
2023/09/16 13:43:41;;;;;;;8.36;4.24;;;;;;;27.60;55.21;98884.19;7239726;40;20438;31
2023/09/16 13:49:01;;;;;;;5.28;4.60;;;;;;;27.47;55.55;98882.00;7210465;40;20245;31
2023/09/16 13:54:23;;;;;;;5.83;4.10;;;;;;;27.37;54.36;98876.53;7235231;40;20287;31
2023/09/16 13:59:59;;;;;;;4.70;4.30;;;;;;;27.29;55.01;98871.59;7248283;40;20873;31
2023/09/16 14:05:35;;;;;;;5.30;4.10;;;;;;;27.47;55.31;98875.66;7242910;40;20921;31
2023/09/16 14:10:54;;;;;;;4.60;4.20;;;;;;;27.84;54.17;98866.88;7222060;40;20482;31
2023/09/16 14:16:32;;;;;;;4.40;3.95;;;;;;;27.88;53.54;98862.41;7271096;40;20252;31
2023/09/16 14:21:51;;;;;;;4.55;4.05;;;;;;;27.77;53.31;98862.50;7257579;39;20696;31
2023/09/16 14:27:11;;;;;;;5.43;3.83;;;;;;;27.69;53.43;98871.41;7264402;40;20857;31
2023/09/16 14:32:48;;;;;;;4.23;3.80;;;;;;;27.48;53.04;98871.78;7257407;40;20265;31
2023/09/16 14:38:23;;;;;;;5.18;4.00;;;;;;;27.33;54.54;98875.44;7293318;39;20391;31
2023/09/16 14:49:04;;;;;;;5.50;3.85;;;;;;;27.26;55.26;98877.66;7313510;39;20724;31
2023/09/16 14:54:39;;;;;;;6.93;4.30;;;;;;;27.11;55.60;98870.28;7265105;39;20238;31
2023/09/16 15:00:00;;;;;;;7.50;4.00;;;;;;;27.06;56.83;98886.06;7274375;40;20245;31
2023/09/16 15:05:37;;;;;;;5.97;4.10;;;;;;;26.95;55.86;98873.34;7358406;39;20250;31
2023/09/16 15:11:12;;;;;;;4.17;3.67;;;;;;;26.84;56.98;98883.59;7298538;39;20240;31
2023/09/16 15:16:32;;;;;;;3.95;3.62;;;;;;;26.79;57.12;98881.66;7268251;40;20249;31
2023/09/16 15:22:07;;;;;;;5.12;3.88;;;;;;;26.79;57.63;98869.78;7247321;40;20313;31
2023/09/16 15:27:42;;;;;;;6.10;3.62;;;;;;;26.78;57.19;98876.41;7197125;40;20349;31
2023/09/16 15:33:17;;;;;;;5.35;3.60;;;;;;;26.60;58.10;98886.09;7174609;40;20395;31
2023/09/16 15:38:53;;;;;;;5.00;3.62;;;;;;;26.60;59.74;98883.34;7195293;40;20262;31
2023/09/16 15:44:10;;;;;;;4.45;3.70;;;;;;;26.64;60.32;98878.91;7235974;40;21080;31
2023/09/16 15:49:28;;;;;;;3.90;3.60;;;;;;;26.58;60.67;98874.50;7269901;40;20557;31
2023/09/16 15:55:02;;;;;;;5.14;3.84;;;;;;;26.45;60.63;98867.63;7314510;39;20284;31
2023/09/16 16:05:41;;;;;;;3.97;3.60;;;;;;;26.37;61.14;98861.81;7270825;40;21103;31
2023/09/16 16:11:17;;;;;;;4.22;3.82;;;;;;;26.43;61.04;98877.28;7268910;40;20288;31
2023/09/16 16:16:52;;;;;;;4.53;3.70;;;;;;;26.40;60.48;98872.31;7297265;40;20283;31
2023/09/16 16:22:27;;;;;;;4.65;4.25;;;;;;;26.27;62.62;98872.87;7304729;39;20270;31
2023/09/16 16:28:04;;;;;;;5.00;4.18;;;;;;;26.22;63.13;98870.94;7251585;40;20460;31
2023/09/16 16:33:23;;;;;;;4.57;4.00;;;;;;;26.22;62.78;98865.41;7207938;40;20384;31
2023/09/16 16:38:43;;;;;;;4.80;4.00;;;;;;;26.13;61.49;98867.03;7195790;40;20732;31
2023/09/16 16:44:17;;;;;;;4.62;4.22;;;;;;;25.94;62.07;98863.97;7242257;40;20962;31
2023/09/16 16:49:52;;;;;;;4.07;3.70;;;;;;;25.86;62.11;98856.22;7296153;39;20365;31
2023/09/16 16:55:29;;;;;;;4.65;3.92;;;;;;;25.71;63.02;98853.47;7262570;40;20273;31
2023/09/16 17:01:08;;;;;;;6.52;3.94;;;;;;;25.55;63.34;98843.47;7250292;40;20277;31
2023/09/16 17:06:43;;;;;;;4.85;3.80;;;;;;;25.46;63.31;98851.41;7257951;40;20331;31
2023/09/16 17:17:23;;;;;;;5.85;4.20;;;;;;;25.35;62.92;98846.97;7227349;40;20261;31
2023/09/16 17:22:57;;;;;;;4.20;3.47;;;;;;;25.30;63.77;98851.63;7292725;39;20771;31
2023/09/16 17:28:32;;;;;;;11.40;3.70;;;;;;;25.21;62.57;98859.59;7302005;39;20771;31
2023/09/16 17:34:12;;;;;;;5.55;3.60;;;;;;;25.14;62.75;98862.59;7260602;40;20700;31
2023/09/16 17:39:31;;;;;;;5.62;3.78;;;;;;;25.07;63.25;98864.78;7238082;40;20254;31
2023/09/16 17:50:10;;;;;;;4.55;4.07;;;;;;;24.78;62.94;98857.16;7221450;40;20397;31
2023/09/16 17:55:45;;;;;;;4.75;4.05;;;;;;;24.70;62.95;98864.81;7237230;40;20772;31
2023/09/16 18:01:21;;;;;;;4.30;3.90;;;;;;;24.73;63.53;98868.16;7264590;39;20229;31
2023/09/16 18:06:54;;;;;;;6.80;4.68;;;;;;;24.68;63.66;98885.50;7336660;39;20270;31
2023/09/16 18:17:33;;;;;;;6.93;4.28;;;;;;;24.55;64.60;98888.69;7296192;39;21124;31
2023/09/16 18:28:13;;;;;;;5.95;5.00;;;;;;;24.39;65.88;98878.66;7289031;39;21942;31
2023/09/16 18:33:48;;;;;;;3.70;3.40;;;;;;;24.23;64.83;98889.56;7281868;39;20340;31
2023/09/16 18:39:08;;;;;;;4.47;3.57;;;;;;;24.14;64.77;98904.88;7229417;40;20422;31
2023/09/16 18:44:45;;;;;;;5.75;4.20;;;;;;;24.07;66.35;98896.00;7257198;40;20240;31
2023/09/16 18:50:18;;;;;;;4.47;3.95;;;;;;;24.06;66.33;98894.31;7227268;40;20266;31
2023/09/16 18:55:53;;;;;;;4.50;4.10;;;;;;;24.06;65.38;98899.84;7235573;40;20256;31
2023/09/16 19:06:40;;;;;;;4.35;3.95;;;;;;;24.02;64.23;98915.22;7201291;40;20262;31
2023/09/16 19:12:15;;;;;;;4.35;3.95;;;;;;;24.03;64.77;98922.41;7257752;40;20244;31
2023/09/16 19:17:51;;;;;;;5.38;3.96;;;;;;;24.00;66.08;98928.41;7189438;40;20452;31
2023/09/16 19:28:30;;;;;;;4.30;3.90;;;;;;;23.90;66.94;98942.09;7243048;40;21127;31
2023/09/16 19:34:06;;;;;;;4.43;4.03;;;;;;;23.67;69.40;98928.59;7032612;40;20238;31
2023/09/16 19:39:41;;;;;;;5.62;4.32;;;;;;;23.52;70.06;98932.00;7322953;39;20339;31
2023/09/16 19:45:03;;;;;;;6.35;4.60;;;;;;;23.39;71.95;98920.56;7296747;39;20802;31
2023/09/16 19:50:40;;;;;;;4.85;4.40;;;;;;;23.38;71.20;98921.63;7287996;39;20781;31
2023/09/16 19:56:20;;;;;;;4.80;4.40;;;;;;;23.41;71.65;98926.59;7243108;40;20776;31
2023/09/16 20:01:36;;;;;;;5.70;4.43;;;;;;;23.39;71.59;98924.09;7275227;39;20247;31
2023/09/16 20:07:14;;;;;;;4.65;4.25;;;;;;;23.23;72.52;98905.75;7284968;39;20237;31
2023/09/16 20:12:33;;;;;;;4.90;4.40;;;;;;;23.13;72.88;98909.19;7305155;39;20759;31
2023/09/16 20:18:08;;;;;;;5.75;5.18;;;;;;;23.04;74.08;98901.63;7290874;39;20832;31
2023/09/16 20:23:46;;;;;;;5.50;4.70;;;;;;;22.95;74.62;98916.94;7268587;39;20330;31
2023/09/16 20:29:19;;;;;;;5.30;4.80;;;;;;;23.01;73.76;98930.47;7292317;39;20472;31
2023/09/16 20:34:41;;;;;;;5.87;5.17;;;;;;;22.90;74.21;98926.75;7268790;40;20284;31
2023/09/16 20:45:41;;;;;;;6.90;5.20;;;;;;;22.77;73.59;98927.09;7253337;40;21022;31
2023/09/16 20:51:01;;;;;;;5.77;5.23;;;;;;;22.78;73.48;98936.19;7240323;40;20254;31
2023/09/16 20:56:21;;;;;;;5.28;4.75;;;;;;;22.62;75.53;98939.75;7271981;39;20344;31
2023/09/16 21:01:58;;;;;;;5.45;4.95;;;;;;;22.46;75.08;98931.28;7298751;39;20311;31
2023/09/16 21:07:18;;;;;;;5.40;4.90;;;;;;;22.32;75.58;98915.38;7248888;40;20435;31
2023/09/16 21:12:40;;;;;;;5.80;5.30;;;;;;;22.09;75.10;98905.38;7266877;40;20450;31
2023/09/16 21:18:14;;;;;;;5.90;5.05;;;;;;;22.06;75.82;98910.53;7306667;39;20244;31
2023/09/16 21:23:34;;;;;;;7.37;4.90;;;;;;;22.08;74.92;98917.41;7235180;40;20493;31
2023/09/16 21:34:12;;;;;;;5.47;4.97;;;;;;;22.14;74.84;98908.22;7290616;40;21399;31
2023/09/16 21:39:35;;;;;;;5.85;5.25;;;;;;;21.99;75.41;98907.94;7244101;40;20269;31
2023/09/16 21:45:08;;;;;;;7.10;5.00;;;;;;;21.78;76.86;98906.69;7273779;39;20341;31
2023/09/16 21:55:53;;;;;;;7.03;5.35;;;;;;;21.64;76.61;98901.75;7317389;39;20263;31
2023/09/16 22:01:16;;;;;;;6.56;5.68;;;;;;;21.67;76.20;98906.75;7299554;40;20353;31
2023/09/16 22:06:37;;;;;;;6.75;5.18;;;;;;;21.68;75.91;98911.16;7306829;39;20255;31
2023/09/16 22:12:12;;;;;;;6.50;5.22;;;;;;;21.64;75.99;98899.84;7298477;39;20255;31
2023/09/16 22:17:50;;;;;;;6.52;5.14;;;;;;;21.57;75.33;98904.66;7284126;40;20237;31
2023/09/16 22:23:26;;;;;;;6.60;5.00;;;;;;;21.51;75.68;98913.84;7220912;40;20265;31
2023/09/16 22:34:13;;;;;;;5.70;5.07;;;;;;;21.37;75.23;98909.75;7215791;40;20285;31
2023/09/16 22:39:36;;;;;;;5.27;4.77;;;;;;;21.40;75.03;98904.59;7244630;40;20260;31
2023/09/16 22:44:57;;;;;;;6.15;4.75;;;;;;;21.41;74.61;98908.97;7243993;40;20351;31
2023/09/16 22:55:37;;;;;;;6.70;4.75;;;;;;;21.31;75.20;98905.22;7299087;39;20271;31
2023/09/16 23:06:03;;;;;;;6.45;4.70;;;;;;;20.89;75.49;98899.06;7304979;39;21118;31
2023/09/16 23:11:36;;;;;;;6.30;5.10;;;;;;;20.75;76.27;98897.66;7341287;39;20271;31
2023/09/16 23:21:58;;;;;;;5.00;4.43;;;;;;;20.78;75.93;98898.03;7337625;39;20272;31
2023/09/16 23:32:33;;;;;;;4.68;4.25;;;;;;;20.75;75.54;98908.63;7364626;39;21475;31
2023/09/16 23:37:54;;;;;;;5.20;4.70;;;;;;;20.79;74.58;98907.06;7299110;39;20353;31
2023/09/16 23:48:36;;;;;;;4.50;4.10;;;;;;;20.62;75.53;98918.72;7358924;39;20251;31
2023/09/16 23:59:00;;;;;;;5.10;4.50;;;;;;;20.45;76.22;98923.25;7296058;39;21003;31
